Time;durP1;ratioP1;P1;durP2;ratioP2;P2;SDS_P1;SDS_P2;PMS_P1;PMS_P2;Temp;Humidity;BMP_temperature;BMP_pressure;BME280_temperature;BME280_humidity;BME280_pressure;Samples;Min_cycle;Max_cycle;Signal;HPM_P1;HPM_P2
2023/09/28 00:02:50;;;;;;;0.93;0.85;;;21.40;74.00;;;;;;5072469;28;20425;-74
2023/09/28 00:05:16;;;;;;;2.22;1.10;;;21.40;74.10;;;;;;5092986;28;20041;-75
2023/09/28 00:07:44;;;;;;;2.40;1.02;;;21.40;74.10;;;;;;5084646;28;20536;-75
2023/09/28 00:10:13;;;;;;;1.25;1.00;;;21.40;74.10;;;;;;5096150;28;20027;-75
2023/09/28 00:12:40;;;;;;;0.70;0.70;;;21.40;74.10;;;;;;5093172;28;20049;-74
2023/09/28 00:15:07;;;;;;;1.00;0.90;;;21.40;74.10;;;;;;5093798;28;20028;-74
2023/09/28 00:17:33;;;;;;;1.80;0.90;;;21.40;74.00;;;;;;5089732;28;20039;-74
2023/09/28 00:19:58;;;;;;;1.27;1.17;;;21.40;74.10;;;;;;5089848;28;20052;-75
2023/09/28 00:22:24;;;;;;;0.70;0.55;;;21.40;74.10;;;;;;5106595;27;20032;-75
2023/09/28 00:24:49;;;;;;;0.73;0.70;;;21.40;74.20;;;;;;5088676;28;20043;-75
2023/09/28 00:27:15;;;;;;;1.67;1.00;;;21.40;74.30;;;;;;5090649;28;20040;-75
2023/09/28 00:29:41;;;;;;;1.23;0.85;;;21.40;74.20;;;;;;5086055;28;20134;-75
2023/09/28 00:32:07;;;;;;;0.95;0.85;;;21.40;74.00;;;;;;5088238;28;20028;-75
2023/09/28 00:34:33;;;;;;;1.00;0.90;;;21.40;74.30;;;;;;5090254;28;20401;-74
2023/09/28 00:36:59;;;;;;;1.05;0.95;;;21.40;74.30;;;;;;5089470;28;20050;-75
2023/09/28 00:39:24;;;;;;;1.48;1.17;;;21.40;74.10;;;;;;5090992;28;20040;-74
2023/09/28 00:41:50;;;;;;;0.63;0.55;;;21.30;74.20;;;;;;5093000;28;20036;-75
2023/09/28 00:44:15;;;;;;;1.00;0.68;;;21.40;74.30;;;;;;5096851;28;20044;-75
2023/09/28 00:46:41;;;;;;;0.80;0.80;;;21.40;74.30;;;;;;5094571;28;20040;-74
2023/09/28 00:49:06;;;;;;;0.77;0.77;;;21.40;74.20;;;;;;5102268;27;20047;-75
2023/09/28 00:51:33;;;;;;;0.80;0.73;;;21.30;74.10;;;;;;5100752;27;20505;-75
2023/09/28 00:54:03;;;;;;;1.27;1.17;;;21.40;74.10;;;;;;5085904;28;20028;-75
2023/09/28 00:56:29;;;;;;;0.70;0.70;;;21.40;74.30;;;;;;5092317;28;20398;-76
2023/09/28 00:58:56;;;;;;;1.00;0.90;;;21.30;74.10;;;;;;5074667;28;20051;-75
2023/09/28 01:01:24;;;;;;;1.95;0.95;;;21.30;73.90;;;;;;5109967;27;20043;-75
2023/09/28 01:03:50;;;;;;;1.00;0.90;;;21.30;73.90;;;;;;5089221;28;20155;-75
2023/09/28 01:06:16;;;;;;;0.90;0.70;;;21.30;74.40;;;;;;5091219;28;20043;-75
2023/09/28 01:08:41;;;;;;;0.85;0.80;;;21.30;74.00;;;;;;5094949;28;20048;-75
2023/09/28 01:11:10;;;;;;;0.88;0.80;;;21.30;74.00;;;;;;5085632;28;20059;-75
2023/09/28 01:13:38;;;;;;;0.85;0.68;;;21.30;74.00;;;;;;5091496;28;20050;-74
2023/09/28 01:16:04;;;;;;;0.93;0.82;;;21.30;73.80;;;;;;5092855;28;20386;-74
2023/09/28 01:18:30;;;;;;;0.85;0.73;;;21.30;73.80;;;;;;5071343;28;20137;-75
2023/09/28 01:20:57;;;;;;;1.08;0.60;;;21.30;73.80;;;;;;5090210;28;20040;-75
2023/09/28 01:23:23;;;;;;;1.35;0.88;;;21.30;73.90;;;;;;5087461;28;20033;-75
2023/09/28 01:25:49;;;;;;;0.80;0.80;;;21.30;73.80;;;;;;5092981;28;20032;-74
2023/09/28 01:28:16;;;;;;;1.17;0.80;;;21.30;73.60;;;;;;5092201;28;20047;-74
2023/09/28 01:30:42;;;;;;;0.98;0.85;;;21.30;74.00;;;;;;5074342;28;20130;-74
2023/09/28 01:33:09;;;;;;;1.23;1.00;;;21.30;73.70;;;;;;5087137;28;20140;-74
2023/09/28 01:35:34;;;;;;;1.02;0.88;;;21.30;73.70;;;;;;5085912;28;20036;-75
2023/09/28 01:38:03;;;;;;;1.27;0.88;;;21.30;73.60;;;;;;5077543;28;20054;-75
2023/09/28 01:40:29;;;;;;;0.80;0.80;;;21.30;73.90;;;;;;5090249;28;20572;-75
2023/09/28 01:42:55;;;;;;;1.17;0.88;;;21.30;73.60;;;;;;5090044;28;20210;-74
2023/09/28 01:45:20;;;;;;;0.70;0.70;;;21.30;73.70;;;;;;5089505;28;20528;-74
2023/09/28 01:47:46;;;;;;;1.15;0.90;;;21.30;73.60;;;;;;5087288;28;20047;-75
2023/09/28 01:50:11;;;;;;;1.40;0.90;;;21.30;73.50;;;;;;5079917;28;20032;-75
2023/09/28 01:52:37;;;;;;;0.95;0.90;;;21.30;73.50;;;;;;5084350;28;20044;-75
2023/09/28 01:55:03;;;;;;;0.90;0.80;;;21.30;73.60;;;;;;5085207;28;20032;-75
2023/09/28 01:57:28;;;;;;;0.93;0.60;;;21.30;73.50;;;;;;5096641;28;20814;-75
2023/09/28 01:59:54;;;;;;;1.13;0.95;;;21.30;73.40;;;;;;5083728;28;20040;-75
2023/09/28 02:02:21;;;;;;;1.42;0.60;;;21.30;73.40;;;;;;5091021;28;20055;-75
2023/09/28 02:04:46;;;;;;;1.20;0.93;;;21.30;73.40;;;;;;5090779;28;20032;-75
2023/09/28 02:07:12;;;;;;;2.25;0.90;;;21.30;73.40;;;;;;5095439;28;20044;-74
2023/09/28 02:09:38;;;;;;;0.70;0.70;;;21.30;73.30;;;;;;5086174;28;20070;-75
2023/09/28 02:12:04;;;;;;;2.13;1.30;;;21.30;73.30;;;;;;5089171;28;20044;-75
2023/09/28 02:14:29;;;;;;;1.98;0.77;;;21.30;73.30;;;;;;5088369;28;20120;-75
2023/09/28 02:16:55;;;;;;;1.10;0.90;;;21.30;73.30;;;;;;5093249;28;20076;-75
2023/09/28 02:19:22;;;;;;;1.15;1.05;;;21.30;74.10;;;;;;5101487;28;20529;-75
2023/09/28 02:21:47;;;;;;;1.27;0.90;;;21.30;73.40;;;;;;5092217;28;20040;-75
2023/09/28 02:24:13;;;;;;;1.30;0.70;;;21.30;73.20;;;;;;5089904;28;20040;-75
2023/09/28 02:26:38;;;;;;;1.90;1.05;;;21.30;73.20;;;;;;5087330;28;20459;-75
2023/09/28 02:29:04;;;;;;;0.80;0.80;;;21.30;73.20;;;;;;5082307;28;20045;-75
2023/09/28 02:31:31;;;;;;;1.00;0.70;;;21.20;73.20;;;;;;5099129;28;20047;-75
2023/09/28 02:33:56;;;;;;;1.20;1.00;;;21.30;73.30;;;;;;5089466;28;20055;-75
2023/09/28 02:36:22;;;;;;;0.80;0.80;;;21.30;74.10;;;;;;5094293;28;20500;-75
2023/09/28 02:38:48;;;;;;;1.45;0.80;;;21.30;73.20;;;;;;5091188;28;20495;-74
2023/09/28 02:41:17;;;;;;;1.38;0.80;;;21.30;73.20;;;;;;5088887;28;20098;-75
2023/09/28 02:43:42;;;;;;;1.50;0.98;;;21.20;73.10;;;;;;5094520;28;20475;-75
2023/09/28 02:46:08;;;;;;;0.70;0.70;;;21.20;73.00;;;;;;5093982;28;20035;-75
2023/09/28 02:48:34;;;;;;;1.23;0.80;;;21.30;73.10;;;;;;5088038;28;20058;-74
2023/09/28 02:51:00;;;;;;;1.02;0.85;;;21.20;73.10;;;;;;5092758;28;20494;-75
2023/09/28 02:53:26;;;;;;;1.08;0.98;;;21.30;73.20;;;;;;5094799;28;20062;-75
2023/09/28 02:55:52;;;;;;;1.02;0.90;;;21.20;73.10;;;;;;5096027;28;20123;-75
2023/09/28 02:58:18;;;;;;;1.00;0.80;;;21.30;73.10;;;;;;5093006;28;20663;-75
2023/09/28 03:00:43;;;;;;;0.52;0.52;;;21.20;73.10;;;;;;5089401;28;20036;-75
2023/09/28 03:03:09;;;;;;;1.73;0.85;;;21.20;73.10;;;;;;5096818;28;20089;-75
2023/09/28 03:05:38;;;;;;;1.17;0.80;;;21.20;73.00;;;;;;5091911;28;20044;-75
2023/09/28 03:08:07;;;;;;;1.25;0.75;;;21.20;72.70;;;;;;5072970;28;20049;-75
2023/09/28 03:10:39;;;;;;;1.17;0.68;;;21.20;73.00;;;;;;5110699;27;20046;-74
2023/09/28 03:13:05;;;;;;;1.42;1.02;;;21.30;73.00;;;;;;5098447;28;20505;-75
2023/09/28 03:15:31;;;;;;;0.80;0.80;;;21.20;73.50;;;;;;5098679;28;20036;-75
2023/09/28 03:17:57;;;;;;;1.33;0.90;;;21.20;73.00;;;;;;5094782;28;20067;-75
2023/09/28 03:20:25;;;;;;;0.95;0.80;;;21.20;73.00;;;;;;5091550;28;20783;-75
2023/09/28 03:22:50;;;;;;;1.25;0.98;;;21.20;73.80;;;;;;5097449;28;20051;-75
2023/09/28 03:25:17;;;;;;;1.85;1.08;;;21.20;72.90;;;;;;5092341;28;20172;-75
2023/09/28 03:27:44;;;;;;;0.80;0.77;;;21.20;72.90;;;;;;5088309;28;20063;-75
2023/09/28 03:30:11;;;;;;;1.23;1.00;;;21.30;72.90;;;;;;5090451;28;20098;-74
2023/09/28 03:32:40;;;;;;;1.00;0.90;;;21.20;72.90;;;;;;5094706;28;20429;-75
2023/09/28 03:35:07;;;;;;;0.93;0.73;;;21.20;72.80;;;;;;5107817;27;20043;-75
2023/09/28 03:37:33;;;;;;;1.08;0.93;;;21.20;72.80;;;;;;5095984;28;20039;-75
2023/09/28 03:40:00;;;;;;;1.40;0.93;;;21.20;73.60;;;;;;5089595;28;20040;-75
2023/09/28 03:42:26;;;;;;;1.55;1.05;;;21.20;72.80;;;;;;5094800;28;20040;-75
2023/09/28 03:44:52;;;;;;;1.05;0.88;;;21.20;73.60;;;;;;5092919;28;20047;-74
2023/09/28 03:47:19;;;;;;;0.95;0.70;;;21.20;72.80;;;;;;5090959;28;20044;-75
2023/09/28 03:49:44;;;;;;;0.73;0.70;;;21.20;72.80;;;;;;5099079;28;20088;-75
2023/09/28 03:52:10;;;;;;;0.80;0.70;;;21.20;72.80;;;;;;5076257;28;20036;-74
2023/09/28 03:54:36;;;;;;;1.00;0.77;;;21.20;72.80;;;;;;5089813;28;20063;-75
2023/09/28 03:57:02;;;;;;;0.80;0.70;;;21.20;72.80;;;;;;5095890;28;20510;-74
2023/09/28 03:59:27;;;;;;;0.93;0.80;;;21.20;72.80;;;;;;5086972;28;20033;-75
2023/09/28 04:01:53;;;;;;;1.08;0.90;;;21.20;72.80;;;;;;5088480;28;20032;-75
2023/09/28 04:04:19;;;;;;;1.38;0.77;;;21.20;72.80;;;;;;5096553;28;20028;-74
2023/09/28 04:06:45;;;;;;;1.13;0.88;;;21.20;72.80;;;;;;5093621;28;20028;-75
2023/09/28 04:09:11;;;;;;;0.85;0.77;;;21.20;72.80;;;;;;5090399;28;20059;-76
2023/09/28 04:11:37;;;;;;;1.80;0.80;;;21.20;72.80;;;;;;5093880;28;20031;-74
2023/09/28 04:14:02;;;;;;;1.25;1.10;;;21.20;72.70;;;;;;5088789;28;20044;-74
2023/09/28 04:16:28;;;;;;;0.77;0.77;;;21.20;72.70;;;;;;5093359;28;20500;-74
2023/09/28 04:18:54;;;;;;;1.13;0.85;;;21.20;72.70;;;;;;5085200;28;20053;-75
2023/09/28 04:21:19;;;;;;;0.80;0.70;;;21.20;72.70;;;;;;5094807;28;20058;-74
2023/09/28 04:23:45;;;;;;;1.08;0.75;;;21.20;72.80;;;;;;5082691;28;20035;-75
2023/09/28 04:26:10;;;;;;;0.70;0.70;;;21.20;72.90;;;;;;5083272;28;20615;-74
2023/09/28 04:28:36;;;;;;;1.10;0.68;;;21.20;72.80;;;;;;5094346;28;20044;-75
2023/09/28 04:31:01;;;;;;;0.65;0.65;;;21.10;72.70;;;;;;5091705;28;20040;-74
2023/09/28 04:33:27;;;;;;;2.13;0.82;;;21.20;72.70;;;;;;5091244;28;20043;-75
2023/09/28 04:35:53;;;;;;;0.75;0.63;;;21.10;72.70;;;;;;5085742;28;20547;-75
2023/09/28 04:38:19;;;;;;;0.98;0.70;;;21.20;72.60;;;;;;5083702;28;20080;-75
2023/09/28 04:40:44;;;;;;;1.27;1.05;;;21.20;72.70;;;;;;5085127;28;20067;-75
2023/09/28 04:43:10;;;;;;;1.02;0.93;;;21.20;72.60;;;;;;5074589;28;20052;-75
2023/09/28 04:45:36;;;;;;;1.02;0.93;;;21.20;72.60;;;;;;5088256;28;20496;-75
2023/09/28 04:48:01;;;;;;;1.58;0.88;;;21.10;72.60;;;;;;5090701;28;20497;-75
2023/09/28 04:50:27;;;;;;;1.63;0.95;;;21.20;72.60;;;;;;5096582;28;20033;-74
2023/09/28 04:52:54;;;;;;;1.58;0.68;;;21.10;72.60;;;;;;5094099;28;20512;-74
2023/09/28 04:55:20;;;;;;;0.90;0.73;;;21.10;72.70;;;;;;5098893;28;20551;-74
2023/09/28 04:57:45;;;;;;;0.70;0.60;;;21.10;72.60;;;;;;5087445;28;20043;-74
2023/09/28 05:00:16;;;;;;;1.95;1.00;;;21.10;72.80;;;;;;5092690;28;20040;-74
2023/09/28 05:02:43;;;;;;;1.73;0.90;;;21.10;72.70;;;;;;5104651;27;20135;-75
2023/09/28 05:05:10;;;;;;;0.77;0.68;;;21.10;72.70;;;;;;5110790;27;20048;-74
2023/09/28 05:07:36;;;;;;;0.70;0.60;;;21.10;72.70;;;;;;5114817;27;20032;-74
2023/09/28 05:10:02;;;;;;;1.27;0.90;;;21.10;72.90;;;;;;5104011;27;20452;-75
2023/09/28 05:12:27;;;;;;;0.90;0.70;;;21.10;72.60;;;;;;4735501;28;9999766;-74
2023/09/28 05:14:53;;;;;;;0.90;0.77;;;21.20;72.90;;;;;;5071423;28;20497;-75
2023/09/28 05:17:19;;;;;;;1.35;0.80;;;21.10;72.90;;;;;;5095388;27;20046;-74
2023/09/28 05:19:44;;;;;;;0.88;0.82;;;21.10;73.40;;;;;;5090006;28;20040;-74
2023/09/28 05:22:10;;;;;;;0.60;0.50;;;21.10;72.90;;;;;;5095388;28;20123;-74
2023/09/28 05:24:36;;;;;;;1.55;1.00;;;21.10;73.00;;;;;;5090782;28;20061;-74
2023/09/28 05:27:02;;;;;;;1.58;0.63;;;21.10;72.80;;;;;;5069061;28;20036;-74
2023/09/28 05:29:29;;;;;;;0.57;0.57;;;21.10;72.80;;;;;;5084123;28;20052;-75
2023/09/28 05:31:55;;;;;;;0.82;0.65;;;21.10;72.60;;;;;;5053834;28;20500;-75
2023/09/28 05:34:21;;;;;;;1.42;0.88;;;21.10;72.90;;;;;;5087652;28;20051;-75
2023/09/28 05:36:47;;;;;;;0.80;0.60;;;21.10;72.70;;;;;;5064267;28;20044;-75
2023/09/28 05:39:12;;;;;;;0.68;0.68;;;21.10;72.70;;;;;;5082914;28;20567;-76
2023/09/28 05:41:38;;;;;;;1.08;0.90;;;21.10;72.60;;;;;;5076659;28;20568;-75
2023/09/28 05:44:04;;;;;;;1.15;0.80;;;21.10;72.80;;;;;;5080266;28;20048;-75
2023/09/28 05:46:30;;;;;;;0.80;0.80;;;21.20;72.60;;;;;;5085088;28;20047;-75
2023/09/28 05:48:56;;;;;;;1.65;0.90;;;21.10;72.70;;;;;;5082570;28;20402;-74
2023/09/28 05:51:22;;;;;;;3.15;1.40;;;21.20;72.30;;;;;;5081562;28;20047;-74
2023/09/28 05:53:50;;;;;;;9.50;2.40;;;21.00;70.90;;;;;;5093766;28;20070;-75
2023/09/28 05:56:16;;;;;;;5.07;2.08;;;20.80;69.80;;;;;;5083898;28;20523;-75
2023/09/28 05:58:42;;;;;;;3.50;2.13;;;20.60;70.30;;;;;;5082001;28;20561;-75
2023/09/28 06:01:12;;;;;;;5.97;2.13;;;20.50;70.40;;;;;;5084732;28;20052;-75
2023/09/28 06:03:38;;;;;;;3.03;1.98;;;20.40;70.50;;;;;;5083396;28;20455;-74
2023/09/28 06:06:16;;;;;;;3.35;1.85;;;20.20;70.70;;;;;;5082831;28;20044;-74
2023/09/28 06:08:43;;;;;;;3.67;1.80;;;20.10;70.90;;;;;;5077049;28;20047;-75
2023/09/28 06:11:11;;;;;;;4.35;2.00;;;20.20;70.80;;;;;;5099263;28;20052;-74
2023/09/28 06:13:39;;;;;;;2.83;1.73;;;20.20;71.30;;;;;;5085532;28;20044;-74
2023/09/28 06:16:04;;;;;;;5.30;2.20;;;20.30;70.80;;;;;;5081395;28;20525;-74
2023/09/28 06:18:30;;;;;;;2.80;1.83;;;20.20;70.70;;;;;;5099538;28;20055;-74
2023/09/28 06:20:55;;;;;;;4.53;2.17;;;20.20;70.90;;;;;;5078613;28;20041;-74
2023/09/28 06:23:21;;;;;;;5.78;2.30;;;20.10;71.40;;;;;;5094482;28;20044;-74
2023/09/28 06:25:47;;;;;;;4.00;2.20;;;20.00;71.30;;;;;;5096004;28;20035;-73
2023/09/28 06:28:13;;;;;;;4.82;2.17;;;20.00;71.30;;;;;;5081740;28;20070;-74
2023/09/28 06:30:38;;;;;;;5.97;2.67;;;20.00;71.40;;;;;;5065096;28;20041;-75
2023/09/28 06:33:04;;;;;;;4.63;2.17;;;19.90;71.50;;;;;;5088970;28;20097;-74
2023/09/28 06:35:30;;;;;;;5.38;2.17;;;19.90;71.90;;;;;;5084880;28;20040;-75
2023/09/28 06:37:56;;;;;;;7.13;2.83;;;19.90;71.50;;;;;;5087469;28;20044;-75
2023/09/28 06:40:22;;;;;;;6.38;2.30;;;19.90;71.60;;;;;;5080619;28;20043;-75
2023/09/28 06:42:47;;;;;;;5.07;2.63;;;19.70;71.90;;;;;;5077455;28;20051;-75
2023/09/28 06:45:14;;;;;;;3.97;2.22;;;19.80;72.80;;;;;;5087342;28;20058;-74
2023/09/28 06:47:39;;;;;;;5.18;1.70;;;19.70;72.10;;;;;;5101614;27;20048;-74
2023/09/28 06:50:05;;;;;;;5.10;2.20;;;19.70;72.30;;;;;;5083370;28;20036;-74
2023/09/28 06:52:32;;;;;;;4.10;2.10;;;19.70;72.30;;;;;;5096384;28;20040;-74
2023/09/28 06:54:58;;;;;;;4.82;2.00;;;19.60;72.60;;;;;;5063794;28;20035;-74
2023/09/28 06:57:24;;;;;;;3.80;2.03;;;19.60;72.80;;;;;;5088800;28;20043;-74
2023/09/28 06:59:50;;;;;;;5.70;2.30;;;19.60;72.60;;;;;;5089742;28;20040;-75
2023/09/28 07:02:15;;;;;;;6.43;2.65;;;19.70;73.10;;;;;;5080207;28;20076;-75
2023/09/28 07:04:41;;;;;;;4.18;1.77;;;19.80;72.80;;;;;;5088801;28;20108;-75
2023/09/28 07:07:06;;;;;;;3.67;1.77;;;20.00;72.60;;;;;;5087824;28;20778;-74
2023/09/28 07:09:32;;;;;;;2.97;1.80;;;20.10;72.50;;;;;;5089984;28;20134;-75
2023/09/28 07:11:58;;;;;;;4.35;1.83;;;20.20;72.30;;;;;;5112377;27;20038;-75
2023/09/28 07:14:23;;;;;;;3.47;1.58;;;20.30;72.50;;;;;;5095348;28;20048;-74
2023/09/28 07:16:49;;;;;;;3.75;1.80;;;20.30;72.20;;;;;;5099566;28;20050;-75
2023/09/28 07:19:15;;;;;;;4.72;2.47;;;20.30;72.00;;;;;;5094303;28;20040;-74
2023/09/28 07:21:41;;;;;;;1.73;1.45;;;20.40;72.90;;;;;;5095726;28;20042;-74
2023/09/28 07:24:06;;;;;;;3.63;1.60;;;20.40;72.30;;;;;;5093910;28;20055;-75
2023/09/28 07:26:32;;;;;;;2.65;1.38;;;20.50;72.50;;;;;;5094207;28;20386;-74
2023/09/28 07:28:59;;;;;;;2.38;1.35;;;20.50;72.50;;;;;;5097304;28;20052;-75
2023/09/28 07:31:24;;;;;;;2.78;1.90;;;20.50;72.40;;;;;;5114017;27;20047;-74
2023/09/28 07:33:50;;;;;;;3.67;1.88;;;20.50;72.30;;;;;;5096184;28;20035;-74
2023/09/28 07:36:16;;;;;;;2.05;1.20;;;20.50;72.30;;;;;;5093580;28;20043;-75
2023/09/28 07:38:43;;;;;;;3.03;1.40;;;20.60;72.30;;;;;;5110876;27;20042;-75
2023/09/28 07:41:10;;;;;;;3.08;1.40;;;20.60;72.20;;;;;;5096309;28;20575;-74
2023/09/28 07:43:35;;;;;;;2.28;1.30;;;20.60;72.30;;;;;;5080533;28;20035;-75
2023/09/28 07:46:01;;;;;;;2.28;1.48;;;20.60;72.30;;;;;;5093405;28;20040;-75
2023/09/28 07:48:26;;;;;;;2.17;1.38;;;20.60;72.30;;;;;;5095812;28;20039;-75
2023/09/28 07:50:52;;;;;;;2.13;1.30;;;20.60;72.30;;;;;;5093567;28;20063;-75
2023/09/28 07:53:18;;;;;;;1.85;1.30;;;20.60;72.20;;;;;;5091184;28;20048;-75
2023/09/28 07:55:44;;;;;;;2.08;1.63;;;20.60;72.30;;;;;;5083038;28;20044;-75
2023/09/28 07:58:09;;;;;;;1.83;1.23;;;20.60;72.30;;;;;;5093017;28;20212;-74
2023/09/28 08:00:35;;;;;;;1.52;1.25;;;20.60;72.20;;;;;;5093022;28;20215;-75
2023/09/28 08:03:00;;;;;;;2.80;1.38;;;20.60;72.30;;;;;;5095815;28;20077;-75
2023/09/28 08:05:26;;;;;;;1.75;1.33;;;20.70;72.30;;;;;;5098347;28;20066;-75
2023/09/28 08:07:51;;;;;;;1.58;1.20;;;20.60;72.30;;;;;;5094554;28;20081;-75
2023/09/28 08:10:17;;;;;;;1.70;1.30;;;20.70;72.40;;;;;;5096914;28;20023;-75
2023/09/28 08:12:44;;;;;;;2.03;1.35;;;20.70;72.40;;;;;;5094797;28;20054;-75
2023/09/28 08:15:09;;;;;;;1.52;1.10;;;20.70;72.50;;;;;;5094817;28;20031;-75
2023/09/28 08:17:39;;;;;;;1.67;1.45;;;20.70;72.50;;;;;;5097386;28;20040;-75
2023/09/28 08:20:07;;;;;;;2.50;1.13;;;20.70;72.40;;;;;;5095569;28;20468;-75
2023/09/28 08:22:34;;;;;;;1.25;1.00;;;20.70;72.50;;;;;;5093848;28;20450;-75
2023/09/28 08:25:00;;;;;;;2.92;1.23;;;20.70;73.40;;;;;;5097005;28;20048;-75
2023/09/28 08:27:25;;;;;;;3.00;1.50;;;20.70;72.40;;;;;;5097173;28;20048;-75
2023/09/28 08:29:51;;;;;;;1.52;1.23;;;20.70;72.30;;;;;;5095914;28;20103;-75
2023/09/28 08:32:16;;;;;;;2.28;1.48;;;20.70;72.30;;;;;;5096639;28;20045;-75
2023/09/28 08:34:43;;;;;;;1.10;0.98;;;20.80;72.40;;;;;;5095222;28;20032;-75
2023/09/28 08:37:09;;;;;;;1.63;1.08;;;20.70;72.30;;;;;;5095016;28;20036;-75
2023/09/28 08:39:36;;;;;;;1.48;0.95;;;20.80;72.30;;;;;;5092935;28;20041;-75
2023/09/28 08:42:02;;;;;;;1.90;1.38;;;20.80;72.30;;;;;;5092328;28;20048;-75
2023/09/28 08:44:30;;;;;;;3.50;1.17;;;20.80;72.30;;;;;;5092376;28;20047;-75
2023/09/28 08:46:58;;;;;;;1.75;1.40;;;20.80;72.20;;;;;;5100763;28;20044;-74
2023/09/28 08:49:26;;;;;;;1.80;1.10;;;20.80;72.20;;;;;;5098864;28;20062;-75
2023/09/28 08:51:54;;;;;;;1.33;0.80;;;20.80;72.20;;;;;;5096937;28;20040;-74
2023/09/28 08:54:19;;;;;;;2.08;1.45;;;20.80;72.30;;;;;;5088866;28;21412;-75
2023/09/28 08:56:46;;;;;;;1.40;1.00;;;20.90;72.40;;;;;;5093740;28;20043;-75
2023/09/28 08:59:12;;;;;;;2.65;1.40;;;20.80;72.40;;;;;;5091936;28;20035;-75
2023/09/28 09:01:37;;;;;;;1.67;1.10;;;20.90;72.30;;;;;;5095600;28;20039;-75
2023/09/28 09:04:03;;;;;;;2.05;1.20;;;20.90;72.40;;;;;;5109686;27;20035;-75
2023/09/28 09:06:29;;;;;;;2.45;1.27;;;20.90;72.50;;;;;;5097028;28;20035;-75
2023/09/28 09:09:00;;;;;;;1.88;1.50;;;20.90;72.50;;;;;;5092311;28;20055;-75
2023/09/28 09:11:27;;;;;;;2.00;1.13;;;20.90;72.60;;;;;;5094758;28;20051;-74
2023/09/28 09:13:54;;;;;;;1.60;1.40;;;20.90;72.70;;;;;;5080670;28;20050;-75
2023/09/28 09:16:22;;;;;;;3.08;1.70;;;20.90;72.80;;;;;;5094512;28;20033;-75
2023/09/28 09:18:48;;;;;;;1.38;1.08;;;20.90;72.80;;;;;;5093645;28;20100;-75
2023/09/28 09:21:13;;;;;;;2.10;1.30;;;20.90;72.80;;;;;;5093295;28;20048;-75
2023/09/28 09:23:39;;;;;;;1.23;1.00;;;20.90;72.60;;;;;;5092767;28;20040;-75
2023/09/28 09:26:05;;;;;;;1.20;0.90;;;21.00;72.80;;;;;;5099122;28;20071;-75
2023/09/28 09:28:34;;;;;;;2.40;1.15;;;21.00;72.80;;;;;;5081399;28;20059;-75
2023/09/28 09:31:00;;;;;;;1.55;1.30;;;21.00;72.80;;;;;;5091097;28;20063;-75
2023/09/28 09:33:26;;;;;;;1.35;1.10;;;21.00;72.80;;;;;;5075033;28;20044;-75
2023/09/28 09:35:52;;;;;;;1.85;0.95;;;21.00;73.50;;;;;;5075891;28;20031;-75
2023/09/28 09:38:27;;;;;;;1.33;1.10;;;21.00;72.70;;;;;;5089092;28;20037;-75
2023/09/28 09:41:04;;;;;;;1.52;1.15;;;21.00;72.40;;;;;;5073786;28;20158;-75
2023/09/28 09:43:34;;;;;;;1.50;1.40;;;21.00;72.30;;;;;;5098210;28;20097;-75
2023/09/28 09:46:03;;;;;;;1.42;1.10;;;21.00;72.30;;;;;;5093608;28;20516;-75
2023/09/28 09:48:28;;;;;;;1.85;1.20;;;21.10;72.30;;;;;;5091737;28;20130;-75
2023/09/28 09:50:55;;;;;;;1.15;0.85;;;21.10;72.40;;;;;;5061351;28;20126;-75
2023/09/28 09:53:21;;;;;;;1.77;1.25;;;21.10;72.30;;;;;;5076735;28;20177;-74
2023/09/28 09:55:47;;;;;;;1.30;1.17;;;21.10;72.30;;;;;;5085151;28;20511;-74
2023/09/28 09:58:14;;;;;;;1.55;1.20;;;21.10;72.30;;;;;;5093881;28;20040;-75
2023/09/28 10:00:40;;;;;;;1.58;1.10;;;21.10;72.50;;;;;;5072488;28;20512;-75
2023/09/28 10:03:05;;;;;;;1.48;1.20;;;21.10;72.40;;;;;;5059392;28;20052;-75
2023/09/28 10:05:32;;;;;;;1.25;1.10;;;21.10;72.40;;;;;;5080952;28;20040;-75
2023/09/28 10:07:58;;;;;;;1.20;0.90;;;21.10;72.40;;;;;;5079008;28;20048;-75
2023/09/28 10:10:27;;;;;;;1.80;1.23;;;21.10;72.40;;;;;;5092754;28;20069;-75
2023/09/28 10:12:53;;;;;;;1.02;0.80;;;21.10;72.40;;;;;;5096470;28;20040;-75
2023/09/28 10:15:18;;;;;;;1.27;0.93;;;21.20;72.30;;;;;;5059460;28;20043;-75
2023/09/28 10:17:44;;;;;;;1.80;1.05;;;21.20;72.30;;;;;;5107551;28;20527;-75
2023/09/28 10:20:13;;;;;;;1.40;0.95;;;21.20;72.30;;;;;;5077179;28;20109;-76
2023/09/28 10:22:41;;;;;;;1.52;1.10;;;21.20;72.30;;;;;;4719965;28;10000453;-75
2023/09/28 10:25:07;;;;;;;1.35;1.10;;;21.20;71.90;;;;;;5056360;28;20044;-75
2023/09/28 10:27:36;;;;;;;1.95;1.20;;;21.30;72.10;;;;;;5070152;28;20547;-75
2023/09/28 10:30:18;;;;;;;1.30;1.02;;;21.20;72.00;;;;;;5054684;28;20633;-74
2023/09/28 10:32:45;;;;;;;1.27;0.82;;;21.20;72.30;;;;;;5069489;28;20513;-75
2023/09/28 10:35:31;;;;;;;1.42;1.05;;;21.30;72.20;;;;;;5053702;28;20045;-75
2023/09/28 10:38:29;;;;;;;1.48;1.10;;;21.20;72.10;;;;;;5069172;28;20115;-74
2023/09/28 10:40:58;;;;;;;1.20;0.73;;;21.30;72.20;;;;;;5017523;28;20047;-75
2023/09/28 10:43:48;;;;;;;2.00;1.48;;;21.30;72.20;;;;;;5072115;28;20054;-76
2023/09/28 10:46:14;;;;;;;1.63;0.95;;;21.30;72.00;;;;;;5056338;28;20610;-75
2023/09/28 10:48:44;;;;;;;1.38;1.00;;;21.30;72.10;;;;;;5067306;28;20049;-75
2023/09/28 10:51:16;;;;;;;1.40;0.93;;;21.30;72.10;;;;;;5053238;28;20115;-75
2023/09/28 10:53:42;;;;;;;1.23;1.02;;;21.30;72.10;;;;;;5069748;28;20112;-75
2023/09/28 10:56:08;;;;;;;0.95;0.90;;;21.30;71.90;;;;;;5068391;28;20051;-75
2023/09/28 10:58:36;;;;;;;1.15;0.93;;;21.30;72.10;;;;;;5070184;28;20051;-75
2023/09/28 11:01:04;;;;;;;1.13;0.93;;;21.30;72.20;;;;;;5087482;27;20256;-75
2023/09/28 11:03:31;;;;;;;2.67;1.02;;;21.30;72.20;;;;;;5067221;28;20071;-76
2023/09/28 11:05:58;;;;;;;2.15;1.05;;;21.30;72.20;;;;;;5054243;28;20066;-76
2023/09/28 11:08:26;;;;;;;1.67;0.85;;;21.30;72.20;;;;;;5068332;28;20511;-75
2023/09/28 11:10:55;;;;;;;1.88;1.08;;;21.30;72.30;;;;;;5068403;28;20070;-75
2023/09/28 11:13:21;;;;;;;1.08;0.98;;;21.30;72.30;;;;;;5069639;28;20031;-76
2023/09/28 11:15:47;;;;;;;0.88;0.73;;;21.30;72.40;;;;;;5053851;28;20052;-76
2023/09/28 11:18:13;;;;;;;1.40;1.17;;;21.30;72.50;;;;;;5068686;28;20070;-76
2023/09/28 11:20:38;;;;;;;1.77;1.00;;;21.30;72.40;;;;;;5070516;28;20533;-75
2023/09/28 11:23:04;;;;;;;1.92;1.30;;;21.30;72.40;;;;;;5055508;28;20045;-75
2023/09/28 11:25:30;;;;;;;1.00;0.95;;;21.30;72.40;;;;;;5069061;28;20082;-75
2023/09/28 11:27:55;;;;;;;2.20;1.30;;;21.30;72.60;;;;;;5068015;28;20067;-75
2023/09/28 11:30:21;;;;;;;2.40;1.23;;;21.30;72.50;;;;;;5052644;28;20538;-75
2023/09/28 11:32:49;;;;;;;1.00;0.75;;;21.30;72.50;;;;;;5069153;28;20050;-75
2023/09/28 11:35:15;;;;;;;1.98;0.93;;;21.30;72.40;;;;;;5068507;28;20046;-75
2023/09/28 11:37:41;;;;;;;1.60;1.00;;;21.30;72.50;;;;;;5070723;28;20048;-75
2023/09/28 11:40:08;;;;;;;1.40;0.88;;;21.30;72.50;;;;;;5069366;28;20090;-75
2023/09/28 11:42:37;;;;;;;2.08;0.90;;;21.30;72.50;;;;;;5071189;28;20132;-75
2023/09/28 11:45:03;;;;;;;1.30;1.00;;;21.30;72.50;;;;;;5068692;28;20626;-75
2023/09/28 11:47:29;;;;;;;1.25;0.90;;;21.30;72.60;;;;;;5053031;28;20048;-75
2023/09/28 11:49:54;;;;;;;1.85;1.20;;;21.30;72.80;;;;;;5054080;28;20134;-76
2023/09/28 11:52:20;;;;;;;1.27;1.00;;;21.30;72.80;;;;;;5070178;28;20582;-75
2023/09/28 11:54:45;;;;;;;3.40;1.00;;;21.30;72.80;;;;;;5083357;28;20451;-76
2023/09/28 11:57:11;;;;;;;1.23;0.73;;;21.30;72.90;;;;;;5063396;28;20093;-75
2023/09/28 11:59:37;;;;;;;1.48;0.88;;;21.30;72.80;;;;;;5092280;28;20076;-75
2023/09/28 12:02:02;;;;;;;1.52;0.80;;;21.30;72.70;;;;;;5090796;28;20049;-76
2023/09/28 12:04:28;;;;;;;1.05;0.90;;;21.30;72.80;;;;;;5085936;28;20047;-75
2023/09/28 12:06:53;;;;;;;2.03;0.93;;;21.30;72.90;;;;;;5086405;28;20131;-76
2023/09/28 12:09:19;;;;;;;0.85;0.55;;;21.30;72.90;;;;;;5089514;28;20048;-75
2023/09/28 12:11:45;;;;;;;1.40;1.08;;;21.30;72.80;;;;;;5092237;28;20044;-75
2023/09/28 12:14:12;;;;;;;1.42;0.98;;;21.30;72.80;;;;;;5091402;28;20040;-75
2023/09/28 12:16:38;;;;;;;2.13;1.17;;;21.40;72.90;;;;;;5089055;28;20133;-75
2023/09/28 12:19:04;;;;;;;1.23;0.90;;;21.30;72.80;;;;;;5107313;27;20120;-75
2023/09/28 12:21:29;;;;;;;1.13;0.65;;;21.40;72.90;;;;;;5084613;28;20459;-74
2023/09/28 12:23:56;;;;;;;2.05;0.98;;;21.40;73.00;;;;;;5086685;28;20033;-75
2023/09/28 12:26:21;;;;;;;0.93;0.80;;;21.40;74.10;;;;;;5092794;28;20485;-76
2023/09/28 12:28:47;;;;;;;1.42;0.70;;;21.40;73.70;;;;;;5087328;28;20047;-75
2023/09/28 12:31:13;;;;;;;1.55;0.88;;;21.40;73.20;;;;;;5091075;28;20044;-74
2023/09/28 12:33:39;;;;;;;0.82;0.70;;;21.40;73.70;;;;;;5088824;28;20621;-75
2023/09/28 12:36:09;;;;;;;0.73;0.63;;;21.40;73.30;;;;;;5085300;28;20054;-75
2023/09/28 12:38:34;;;;;;;2.67;1.10;;;21.40;73.70;;;;;;5079971;28;20057;-75
2023/09/28 12:41:00;;;;;;;1.48;0.80;;;21.40;73.40;;;;;;5082454;28;20043;-75
2023/09/28 12:43:26;;;;;;;1.33;0.80;;;21.40;72.90;;;;;;5092091;28;20066;-77